ADDS METAR Data INFO
IDs: Format: Raw Decoded Include TAF

Data at: 1717 UTC 23 Oct 2017

KOKZ 231655Z AUTO 18014G27KT 7SM SCT018 BKN039 OVC048 A2987 RMK AO2
KOKZ 231635Z AUTO 17015G21KT 7SM BKN016 BKN025 OVC050 A2988 RMK AO2
KOKZ 231615Z AUTO 17013G22KT 7SM SCT013 BKN022 OVC036 A2989 RMK AO2
KOKZ 231555Z AUTO 17008G19KT 130V190 7SM SCT013 BKN017 OVC031 A2989 RMK AO2
KOKZ 231535Z AUTO 17009G17KT 7SM BKN014 OVC020 A2991 RMK AO2
KOKZ 231515Z AUTO 17008G15KT 7SM SCT012 OVC018 A2992 RMK AO2
KOKZ 231455Z AUTO 17010G20KT 7SM SCT013 BKN017 OVC027 A2992 RMK AO2
KOKZ 231435Z AUTO 18007KT 5SM -RA SCT012 BKN019 OVC031 A2993 RMK AO2
KOKZ 231415Z AUTO 16010G16KT 7SM SCT009 BKN014 OVC024 A2994 RMK AO2
KOKZ 231355Z AUTO 17011G15KT 5SM RA SCT008 BKN016 OVC025 A2995 RMK AO2
KOKZ 231335Z AUTO 18011G18KT 4SM RA BKN012 OVC019 A2995 RMK AO2
KOKZ 231315Z AUTO 18008G19KT 5SM -RA SCT011 OVC018 A2996 RMK AO2
KOKZ 231255Z AUTO 16010G16KT 130V200 5SM -RA SCT010 BKN016 OVC030 A2996 RMK AO2
KOKZ 231235Z AUTO 16007KT 130V200 5SM -RA BKN013 OVC022 A2996 RMK AO2
KOKZ 231215Z AUTO 16008KT 7SM DZ BKN010 OVC016 A2996 RMK AO2
KOKZ 231155Z AUTO 16007KT 7SM RA BKN008 OVC016 A2997 RMK AO2
KOKZ 231135Z AUTO 16009G14KT 7SM -RA BKN008 OVC014 A2998 RMK AO2 LTG DSNT N
KOKZ 231115Z AUTO 15012G21KT 1 3/4SM +VCTSRA BKN008 OVC012 A2997 RMK AO2 LTG DSNT NE
KOKZ 231055Z AUTO 15005KT 7SM RA BKN010 OVC013 A2998 RMK AO2 LTG DSNT N AND NW
KOKZ 231035Z AUTO 14007KT 10SM OVC007 A2998 RMK AO2
KOKZ 231015Z AUTO 14007KT 10SM BKN009 BKN017 OVC065 A2999 RMK AO2
KOKZ 230955Z AUTO 15007KT 3SM +RA SCT008 BKN015 OVC070 A3000 RMK AO2
KOKZ 230935Z AUTO 14007KT 5SM RA BKN008 OVC014 A3001 RMK AO2
KOKZ 230915Z AUTO 13006KT 7SM RA OVC004 A3001 RMK AO2
KOKZ 230855Z AUTO 13005KT 7SM OVC004 A3001 RMK AO2 LTG DSNT NW
KOKZ 230835Z AUTO 13004KT 10SM OVC004 A3003 RMK AO2
KOKZ 230815Z AUTO 14004KT 10SM OVC006 A3004 RMK AO2
KOKZ 230755Z AUTO 14004KT 10SM OVC008 A3005 RMK AO2
KOKZ 230735Z AUTO 13006KT 7SM RA OVC008 A3006 RMK AO2 LTG DSNT SW
KOKZ 230715Z AUTO 13006KT 10SM BKN008 OVC012 A3008 RMK AO2
KOKZ 230655Z AUTO 14004KT 10SM BKN006 OVC013 A3008 RMK AO2 LTG DSNT SW
KOKZ 230635Z AUTO 12005KT 10SM OVC006 A3009 RMK AO2
KOKZ 230615Z AUTO 12006KT 10SM OVC006 A3009 RMK AO2
KOKZ 230555Z AUTO 11006KT 10SM OVC006 A3010 RMK AO2
KOKZ 230535Z AUTO 10006KT 10SM OVC006 A3010 RMK AO2
KOKZ 230515Z AUTO 11005KT 10SM OVC008 A3011 RMK AO2
KOKZ 230455Z AUTO 13006KT 10SM -RA OVC008 A3012 RMK AO2
KOKZ 230435Z AUTO 13006KT 7SM BKN008 OVC013 A3013 RMK AO2
KOKZ 230415Z AUTO 11006KT 10SM SCT008 BKN017 OVC040 A3014 RMK AO2
KOKZ 230355Z AUTO 12007KT 10SM SCT007 BKN030 OVC090 A3015 RMK AO2
KOKZ 230335Z AUTO 12006KT 10SM SCT007 BKN030 OVC060 A3015 RMK AO2
KOKZ 230315Z AUTO 13007KT 10SM -RA OVC007 A3015 RMK AO2
KOKZ 230255Z AUTO 10007KT 10SM BKN005 OVC011 A3014 RMK AO2
KOKZ 230235Z AUTO 10008KT 10SM OVC005 A3015 RMK AO2
KOKZ 230215Z AUTO 11006KT 10SM OVC005 A3016 RMK AO2
KOKZ 230155Z AUTO 10008KT 10SM OVC005 A3015 RMK AO2
KOKZ 230135Z AUTO 10008KT 10SM OVC005 A3015 RMK AO2
KOKZ 230115Z AUTO 10008KT 7SM OVC005 A3015 RMK AO2
KOKZ 230055Z AUTO 10007KT 7SM OVC005 A3016 RMK AO2
KOKZ 230035Z AUTO 09007KT 10SM OVC007 A3015 RMK AO2
KOKZ 230015Z AUTO 08006KT 10SM OVC007 A3015 RMK AO2
KOKZ 222355Z AUTO 09008KT 10SM OVC007 A3015 RMK AO2
KOKZ 222335Z AUTO 09009KT 10SM OVC007 A3015 RMK AO2
KOKZ 222315Z AUTO 10007KT 10SM OVC009 A3015 RMK AO2
KOKZ 222255Z AUTO 09005KT 7SM OVC009 A3016 RMK AO2
KOKZ 222235Z AUTO 11008KT 7SM BKN009 OVC013 A3016 RMK AO2
KOKZ 222215Z AUTO 10007KT 10SM BKN010 OVC015 A3017 RMK AO2
KOKZ 222155Z AUTO 10007KT 10SM BKN008 BKN015 A3017 RMK AO2
KOKZ 222135Z AUTO 09007KT 7SM BKN006 BKN015 A3017 RMK AO2
KOKZ 222115Z AUTO 09008KT 7SM BKN006 BKN013 BKN021 A3017 RMK AO2
KOKZ 222055Z AUTO 11006KT 10SM BKN006 BKN011 BKN016 A3018 RMK AO2
KOKZ 222035Z AUTO 10006KT 4SM -DZ SCT006 BKN011 OVC016 A3018 RMK AO2
KOKZ 222015Z AUTO 11007KT 1 3/4SM RA SCT006 OVC014 A3019 RMK AO2
KOKZ 221955Z AUTO 10008KT 1 3/4SM -RA BKN008 BKN017 OVC023 21/21 A3019 RMK AO2 T02110211
KOKZ 221935Z AUTO 12008KT 2 1/2SM DZ SCT014 BKN028 OVC033 22/21 A3019 RMK AO2 T02200213
KOKZ 221915Z AUTO 14009KT 5SM RA SCT019 BKN035 OVC041 23/20 A3019 RMK AO2 T02310198
KOKZ 221855Z AUTO 14010G14KT 10SM SCT035 OVC043 25/18 A3019 RMK AO2 T02520183
KOKZ 221835Z AUTO 13010KT 10SM BKN041 BKN049 OVC060 26/18 A3019 RMK AO2 T02590180
KOKZ 221815Z AUTO 13008KT 10SM SCT046 OVC060 27/18 A3019 RMK AO2 T02670181
KOKZ 221755Z AUTO 13009G15KT 10SM BKN049 BKN070 27/18 A3019 RMK AO2 T02690180
KOKZ 221735Z AUTO 12011KT 10SM SCT038 BKN047 27/18 A3021 RMK AO2 T02680177
KOKZ 221715Z AUTO 12009KT 10SM SCT036 BKN045 26/18 A3022 RMK AO2 T02630176
KOKZ 221655Z AUTO 14008KT 10SM SCT034 BKN040 27/18 A3023 RMK AO2 T02650178
KOKZ 221635Z AUTO 12008KT 10SM SCT034 BKN060 27/18 A3024 RMK AO2 T02660180
KOKZ 221615Z AUTO 10009KT 080V150 10SM OVC060 26/18 A3024 RMK AO2 T02560177
KOKZ 221555Z AUTO 09009KT 10SM OVC070 24/18 A3025 RMK AO2 T02410177
KOKZ 221535Z AUTO 10009KT 10SM OVC070 24/18 A3025 RMK AO2 T02370176
KOKZ 221515Z AUTO 12009G14KT 10SM OVC060 23/18 A3026 RMK AO2 T02280175
KOKZ 221455Z AUTO 10009KT 10SM OVC060 22/18 A3026 RMK AO2 T02200175
KOKZ 221435Z AUTO 09007KT 10SM OVC060 21/18 A3027 RMK AO2 T02110175
KOKZ 221415Z AUTO 10006KT 10SM OVC060 20/18 A3027 RMK AO2 T02040175
KOKZ 221355Z AUTO 12008KT 10SM BKN060 20/18 A3028 RMK AO2 T02010182
KOKZ 221335Z AUTO 10009KT 10SM BKN070 19/19 A3028 RMK AO2 T01870187
KOKZ 221315Z AUTO 10007KT 7SM BKN070 A3027 RMK AO2
KOKZ 221255Z AUTO 10009KT 7SM CLR A3026 RMK AO2
KOKZ 221235Z AUTO 10007KT 5SM HZ CLR A3026 RMK AO2
KOKZ 221215Z AUTO 10006KT 5SM HZ CLR A3025 RMK AO2
KOKZ 221155Z AUTO 10008KT 10SM CLR A3024 RMK AO2
KOKZ 221135Z AUTO 11008KT 10SM CLR A3024 RMK AO2
KOKZ 221115Z AUTO 10007KT 10SM CLR A3024 RMK AO2
KOKZ 221055Z AUTO 11007KT 10SM SCT055 A3024 RMK AO2
KOKZ 221035Z AUTO 10008KT 10SM SCT055 A3024 RMK AO2
KOKZ 221015Z AUTO 09006KT 7SM CLR A3024 RMK AO2
KOKZ 220955Z AUTO 11007KT 7SM CLR 17/17 A3024 RMK AO2 T01680168
KOKZ 220935Z AUTO 09005KT 10SM CLR 17/17 A3024 RMK AO2 T01700170
KOKZ 220915Z AUTO 10006KT 7SM CLR 17/17 A3024 RMK AO2 T01700170
KOKZ 220855Z AUTO 10006KT 10SM CLR 17/17 A3023 RMK AO2 T01710171
KOKZ 220835Z AUTO 11006KT 10SM CLR 17/17 A3023 RMK AO2 T01720169
KOKZ 220815Z AUTO 10005KT 7SM CLR 18/17 A3023 RMK AO2 T01770165
KOKZ 220755Z AUTO 10008KT 10SM CLR 18/16 A3023 RMK AO2 T01780164
KOKZ 220735Z AUTO 09007KT 10SM CLR 18/16 A3023 RMK AO2 T01770160
KOKZ 220715Z AUTO 10008KT 10SM CLR 18/16 A3025 RMK AO2 T01790160
KOKZ 220655Z AUTO 11005KT 10SM CLR 18/15 A3025 RMK AO2 T01750151
KOKZ 220635Z AUTO 10005KT 10SM CLR 17/15 A3025 RMK AO2 T01740148
KOKZ 220615Z AUTO 11006KT 10SM CLR 18/15 A3026 RMK AO2 T01760145
KOKZ 220555Z AUTO 11004KT 10SM CLR 18/14 A3026 RMK AO2 T01750140 10203 20140
KOKZ 220535Z AUTO 11005KT 10SM CLR 17/14 A3025 RMK AO2 T01730144